createdAt,value
2022-10-08T00:01:28.856Z,19.75
2022-10-08T00:03:55.526Z,19.73
2022-10-08T00:06:24.155Z,19.74
2022-10-08T00:08:51.165Z,19.73
2022-10-08T00:11:18.510Z,19.71
2022-10-08T00:13:45.737Z,19.65
2022-10-08T00:16:14.149Z,19.66
2022-10-08T00:18:41.437Z,19.68
2022-10-08T00:21:08.696Z,19.72
2022-10-08T00:23:36.735Z,19.73
2022-10-08T00:26:03.747Z,19.73
2022-10-08T00:28:30.282Z,19.75
2022-10-08T00:30:56.659Z,19.76
2022-10-08T00:33:22.976Z,19.79
2022-10-08T00:35:49.318Z,19.73
2022-10-08T00:38:15.631Z,19.64
2022-10-08T00:40:43.994Z,19.68
2022-10-08T00:43:14.219Z,19.71
2022-10-08T00:45:41.216Z,19.73
2022-10-08T00:48:10.679Z,19.74
2022-10-08T00:50:37.034Z,19.74
2022-10-08T00:53:04.896Z,19.77
2022-10-08T00:55:31.765Z,19.77
2022-10-08T00:58:02.410Z,19.72
2022-10-08T01:00:29.600Z,19.66
2022-10-08T01:02:56.022Z,19.69
2022-10-08T01:05:28.150Z,19.71
2022-10-08T01:07:59.192Z,19.73
2022-10-08T01:10:32.148Z,19.76
2022-10-08T01:13:06.570Z,19.78
2022-10-08T01:15:36.365Z,19.79
2022-10-08T01:18:07.838Z,19.80
2022-10-08T01:20:38.050Z,19.77
2022-10-08T01:23:11.184Z,19.68
2022-10-08T01:25:43.542Z,19.71
2022-10-08T01:28:15.474Z,19.73
2022-10-08T01:30:45.405Z,19.74
2022-10-08T01:33:13.881Z,19.76
2022-10-08T01:35:43.455Z,19.76
2022-10-08T01:38:12.288Z,19.77
2022-10-08T01:40:41.400Z,19.79
2022-10-08T01:43:10.824Z,19.76
2022-10-08T01:45:40.778Z,19.70
2022-10-08T01:48:10.582Z,19.72
2022-10-08T01:50:38.886Z,19.73
2022-10-08T01:53:09.136Z,19.76
2022-10-08T01:55:37.149Z,19.76
2022-10-08T01:58:06.067Z,19.77
2022-10-08T02:00:33.370Z,19.78
2022-10-08T02:03:01.584Z,19.78
2022-10-08T02:05:29.797Z,19.80
2022-10-08T02:07:56.200Z,19.71
2022-10-08T02:10:23.556Z,19.71
2022-10-08T02:12:50.303Z,19.74
2022-10-08T02:15:18.947Z,19.77
2022-10-08T02:17:53.821Z,19.78
2022-10-08T02:20:25.655Z,19.78
2022-10-08T02:22:55.574Z,19.79
2022-10-08T02:25:25.454Z,19.78
2022-10-08T02:27:54.074Z,19.75
2022-10-08T02:30:20.707Z,19.67
2022-10-08T02:32:49.860Z,19.70
2022-10-08T02:35:19.511Z,19.72
2022-10-08T02:37:51.121Z,19.74
2022-10-08T02:40:18.223Z,19.75
2022-10-08T02:42:50.204Z,19.76
2022-10-08T02:45:18.964Z,19.77
2022-10-08T02:47:47.110Z,19.77
2022-10-08T02:50:16.510Z,19.78
2022-10-08T02:52:44.942Z,19.71
2022-10-08T02:55:17.932Z,19.69
2022-10-08T02:57:46.145Z,19.70
2022-10-08T03:00:12.808Z,19.73
2022-10-08T03:02:42.791Z,19.75
2022-10-08T03:05:13.201Z,19.76
2022-10-08T03:07:39.543Z,19.78
2022-10-08T03:10:06.777Z,19.77
2022-10-08T03:12:34.834Z,19.79
2022-10-08T03:15:01.354Z,19.75
2022-10-08T03:17:28.853Z,19.69
2022-10-08T03:19:55.194Z,19.72
2022-10-08T03:22:21.957Z,19.72
2022-10-08T03:24:48.281Z,19.76
2022-10-08T03:27:14.601Z,19.76
2022-10-08T03:29:42.237Z,19.77
2022-10-08T03:32:08.592Z,19.77
2022-10-08T03:34:34.918Z,19.78
2022-10-08T03:37:01.279Z,19.79
2022-10-08T03:39:27.587Z,19.71
2022-10-08T03:41:53.930Z,19.68
2022-10-08T03:44:20.249Z,19.69
2022-10-08T03:46:47.921Z,19.72
2022-10-08T03:49:14.363Z,19.72
2022-10-08T03:51:40.793Z,19.73
2022-10-08T03:54:07.442Z,19.74
2022-10-08T03:56:33.930Z,19.75
2022-10-08T03:59:00.928Z,19.75
2022-10-08T04:01:28.198Z,19.72
2022-10-08T04:03:55.921Z,19.65
2022-10-08T04:06:22.317Z,19.65
2022-10-08T04:08:48.652Z,19.67
2022-10-08T04:11:16.103Z,19.70
2022-10-08T04:13:42.677Z,19.71
2022-10-08T04:16:11.547Z,19.71
2022-10-08T04:18:38.344Z,19.70
2022-10-08T04:21:06.885Z,19.71
2022-10-08T04:23:34.316Z,19.73
2022-10-08T04:26:01.147Z,19.69
2022-10-08T04:28:27.636Z,19.63
2022-10-08T04:30:55.000Z,19.64
2022-10-08T04:33:21.411Z,19.65
2022-10-08T04:35:47.757Z,19.66
2022-10-08T04:38:15.436Z,19.67
2022-10-08T04:40:41.767Z,19.68
2022-10-08T04:43:08.181Z,19.68
2022-10-08T04:45:34.494Z,19.67
2022-10-08T04:48:00.814Z,19.66
2022-10-08T04:50:27.202Z,19.61
2022-10-08T04:52:53.593Z,19.57
2022-10-08T04:55:21.257Z,19.59
2022-10-08T04:57:47.837Z,19.60
2022-10-08T05:00:18.224Z,19.61
2022-10-08T05:02:47.437Z,19.61
2022-10-08T05:05:13.923Z,19.61
2022-10-08T05:07:40.258Z,19.61
2022-10-08T05:10:06.821Z,19.60
2022-10-08T05:12:34.450Z,19.60
2022-10-08T05:15:00.807Z,19.55
2022-10-08T05:17:27.263Z,19.52
2022-10-08T05:19:53.599Z,19.52
2022-10-08T05:22:19.957Z,19.52
2022-10-08T05:24:46.394Z,19.52
2022-10-08T05:27:12.729Z,19.54
2022-10-08T05:29:40.420Z,19.57
2022-10-08T05:32:06.850Z,19.54
2022-10-08T05:34:33.162Z,19.52
2022-10-08T05:36:59.494Z,19.54
2022-10-08T05:39:25.966Z,19.45
2022-10-08T05:41:52.368Z,19.45
2022-10-08T05:44:18.698Z,19.46
2022-10-08T05:46:46.346Z,19.46
2022-10-08T05:49:16.171Z,19.47
2022-10-08T05:51:42.489Z,19.46
2022-10-08T05:54:08.790Z,19.44
2022-10-08T05:56:35.255Z,19.46
2022-10-08T05:59:01.636Z,19.44
2022-10-08T06:01:28.937Z,19.40
2022-10-08T06:03:57.200Z,19.37
2022-10-08T06:06:24.196Z,19.39
2022-10-08T06:08:53.026Z,19.40
2022-10-08T06:11:19.365Z,19.39
2022-10-08T06:13:45.707Z,19.39
2022-10-08T06:16:12.484Z,19.38
2022-10-08T06:18:39.857Z,19.38
2022-10-08T06:21:08.268Z,19.38
2022-10-08T06:23:34.646Z,19.38
2022-10-08T06:26:01.449Z,19.33
2022-10-08T06:28:27.915Z,19.29
2022-10-08T06:30:54.594Z,19.30
2022-10-08T06:33:21.813Z,19.32
2022-10-08T06:35:48.246Z,19.31
2022-10-08T06:38:16.000Z,19.32
2022-10-08T06:40:42.354Z,19.31
2022-10-08T06:43:12.023Z,19.30
2022-10-08T06:45:38.658Z,19.29
2022-10-08T06:48:05.172Z,19.26
2022-10-08T06:50:31.566Z,19.24
2022-10-08T06:52:57.905Z,19.25
2022-10-08T06:55:25.539Z,19.25
2022-10-08T06:57:51.938Z,19.26
2022-10-08T07:00:18.407Z,19.26
2022-10-08T07:02:45.102Z,19.26
2022-10-08T07:05:12.048Z,19.27
2022-10-08T07:07:38.375Z,19.26
2022-10-08T07:10:05.017Z,19.23
2022-10-08T07:12:32.646Z,19.20
2022-10-08T07:14:58.971Z,19.20
2022-10-08T07:17:25.405Z,19.21
2022-10-08T07:19:51.811Z,19.22
2022-10-08T07:22:18.171Z,19.22
2022-10-08T07:24:44.495Z,19.23
2022-10-08T07:27:10.804Z,19.22
2022-10-08T07:29:38.458Z,19.23
2022-10-08T07:32:04.970Z,19.20
2022-10-08T07:34:31.489Z,19.15
2022-10-08T07:36:58.019Z,19.16
2022-10-08T07:39:24.971Z,19.17
2022-10-08T07:41:51.329Z,19.17
2022-10-08T07:44:17.963Z,19.18
2022-10-08T07:46:46.035Z,19.18
2022-10-08T07:49:12.386Z,19.19
2022-10-08T07:51:38.770Z,19.19
2022-10-08T07:54:06.233Z,19.18
2022-10-08T07:56:33.136Z,19.14
2022-10-08T07:58:59.983Z,19.14
2022-10-08T08:01:26.708Z,19.17
2022-10-08T08:03:55.208Z,19.16
2022-10-08T08:06:22.250Z,19.19
2022-10-08T08:08:48.779Z,19.19
2022-10-08T08:11:16.118Z,19.21
2022-10-08T08:13:43.027Z,19.22
2022-10-08T08:16:10.514Z,19.24
2022-10-08T08:18:37.663Z,19.21
2022-10-08T08:21:06.428Z,19.16
2022-10-08T08:23:34.039Z,19.18
2022-10-08T08:26:01.249Z,19.21
2022-10-08T08:28:27.655Z,19.22
2022-10-08T08:30:54.050Z,19.25
2022-10-08T08:33:20.372Z,19.27
2022-10-08T08:35:50.677Z,19.27
2022-10-08T08:38:18.457Z,19.28
2022-10-08T08:40:44.954Z,19.25
2022-10-08T08:43:11.353Z,19.20
2022-10-08T08:45:53.370Z,19.24
2022-10-08T08:48:21.781Z,19.26
2022-10-08T08:50:49.099Z,19.28
2022-10-08T08:53:15.614Z,19.28
2022-10-08T08:55:44.666Z,19.31
2022-10-08T08:58:22.248Z,19.32
2022-10-08T09:00:52.015Z,19.33
2022-10-08T09:03:20.070Z,19.31
2022-10-08T09:05:48.376Z,19.26
2022-10-08T09:08:17.920Z,19.28
2022-10-08T09:10:48.133Z,19.29
2022-10-08T09:13:17.574Z,19.32
2022-10-08T09:15:44.917Z,19.34
2022-10-08T09:18:14.118Z,19.35
2022-10-08T09:20:40.661Z,19.35
2022-10-08T09:23:10.929Z,19.38
2022-10-08T09:25:37.394Z,19.38
2022-10-08T09:28:05.110Z,19.29
2022-10-08T09:30:33.301Z,19.28
2022-10-08T09:33:01.008Z,19.32
2022-10-08T09:35:27.471Z,19.37
2022-10-08T09:37:54.430Z,19.40
2022-10-08T09:40:22.349Z,19.41
2022-10-08T09:43:03.622Z,19.40
2022-10-08T09:45:33.388Z,19.41
2022-10-08T09:48:13.212Z,19.40
2022-10-08T09:50:46.817Z,19.32
2022-10-08T09:53:13.209Z,19.33
2022-10-08T09:55:39.621Z,19.39
2022-10-08T09:58:06.200Z,19.40
2022-10-08T10:00:35.058Z,19.44
2022-10-08T10:03:03.353Z,19.45
2022-10-08T10:05:31.296Z,19.49
2022-10-08T10:07:57.854Z,19.48
2022-10-08T10:10:26.186Z,19.47
2022-10-08T10:12:53.901Z,19.47
2022-10-08T10:15:22.595Z,19.42
2022-10-08T10:17:52.043Z,19.42
2022-10-08T10:20:21.994Z,19.44
2022-10-08T10:22:51.393Z,19.46
2022-10-08T10:25:23.226Z,19.45
2022-10-08T10:27:51.856Z,19.46
2022-10-08T10:30:19.722Z,19.45
2022-10-08T10:32:48.568Z,19.48
2022-10-08T10:35:20.346Z,19.48
2022-10-08T10:37:49.554Z,19.43
2022-10-08T10:40:23.676Z,19.47
2022-10-08T10:42:53.795Z,19.48
2022-10-08T10:45:21.947Z,19.52
2022-10-08T10:47:48.910Z,19.53
2022-10-08T10:50:20.150Z,19.55
2022-10-08T10:52:51.039Z,19.57
2022-10-08T10:55:20.993Z,19.57
2022-10-08T10:57:54.701Z,19.49
2022-10-08T11:00:22.358Z,19.44
2022-10-08T11:02:52.159Z,19.48
2022-10-08T11:05:22.743Z,19.52
2022-10-08T11:07:56.262Z,19.54
2022-10-08T11:10:29.269Z,19.59
2022-10-08T11:12:59.645Z,19.59
2022-10-08T11:15:31.512Z,19.58
2022-10-08T11:18:06.837Z,19.60
2022-10-08T11:20:42.370Z,19.52
2022-10-08T11:23:15.430Z,19.50
2022-10-08T11:26:13.963Z,19.57
2022-10-08T11:28:38.886Z,19.57
2022-10-08T11:31:10.763Z,19.60
2022-10-08T11:33:37.628Z,19.64
2022-10-08T11:36:18.890Z,19.63
2022-10-08T11:38:48.967Z,19.68
2022-10-08T11:41:21.754Z,19.59
2022-10-08T11:43:52.849Z,19.56
2022-10-08T11:46:21.866Z,19.57
2022-10-08T11:48:48.740Z,19.63
2022-10-08T11:51:29.943Z,19.66
2022-10-08T11:54:02.814Z,19.64
2022-10-08T11:56:29.348Z,19.63
2022-10-08T11:58:57.279Z,19.64
2022-10-08T12:01:24.117Z,19.64
2022-10-08T12:04:00.283Z,19.56
2022-10-08T12:06:28.420Z,19.57
2022-10-08T12:08:56.090Z,19.61
2022-10-08T12:11:34.897Z,19.66
2022-10-08T12:14:10.783Z,19.67
2022-10-08T12:16:45.250Z,19.71
2022-10-08T12:19:21.386Z,19.71
2022-10-08T12:21:50.327Z,19.72
2022-10-08T12:24:31.483Z,19.60
2022-10-08T12:27:12.686Z,19.60
2022-10-08T12:29:52.710Z,19.64
2022-10-08T12:32:19.246Z,19.66
2022-10-08T12:34:45.649Z,19.67
2022-10-08T12:37:20.046Z,19.66
2022-10-08T12:39:46.774Z,19.71
2022-10-08T12:42:17.484Z,19.73
2022-10-08T12:44:48.313Z,19.64
2022-10-08T12:47:20.680Z,19.63
2022-10-08T12:49:52.043Z,19.69
2022-10-08T12:52:20.891Z,19.71
2022-10-08T12:54:48.902Z,19.77
2022-10-08T12:57:19.809Z,19.78
2022-10-08T12:59:46.229Z,19.77
2022-10-08T13:02:24.827Z,19.81
2022-10-08T13:04:51.161Z,19.69
2022-10-08T13:07:24.702Z,19.63
2022-10-08T13:09:53.707Z,19.66
2022-10-08T13:12:20.142Z,19.71
2022-10-08T13:14:46.721Z,19.74
2022-10-08T13:17:28.480Z,19.76
2022-10-08T13:20:04.226Z,19.80
2022-10-08T13:22:31.825Z,19.77
2022-10-08T13:24:58.312Z,19.66
2022-10-08T13:27:25.608Z,19.65
2022-10-08T13:29:52.340Z,19.68
2022-10-08T13:32:20.403Z,19.69
2022-10-08T13:34:48.586Z,19.73
2022-10-08T13:37:16.571Z,19.79
2022-10-08T13:39:50.019Z,19.76
2022-10-08T13:42:18.198Z,19.75
2022-10-08T13:44:44.912Z,19.68
2022-10-08T13:47:12.170Z,19.65
2022-10-08T13:49:38.812Z,19.70
2022-10-08T13:52:05.602Z,19.74
2022-10-08T13:54:32.595Z,19.77
2022-10-08T13:57:00.375Z,19.76
2022-10-08T13:59:30.441Z,19.80
2022-10-08T14:01:57.365Z,19.76
2022-10-08T14:04:23.886Z,19.68
2022-10-08T14:06:52.690Z,19.69
2022-10-08T14:09:20.498Z,19.74
2022-10-08T14:11:46.973Z,19.81
2022-10-08T14:14:15.078Z,19.82
2022-10-08T14:16:41.904Z,19.81
2022-10-08T14:19:12.011Z,19.84
2022-10-08T14:21:39.596Z,19.84
2022-10-08T14:24:06.408Z,19.74
2022-10-08T14:26:32.854Z,19.69
2022-10-08T14:28:59.495Z,19.74
2022-10-08T14:31:27.785Z,19.77
2022-10-08T14:33:54.356Z,19.81
2022-10-08T14:36:22.706Z,19.83
2022-10-08T14:38:49.013Z,19.88
2022-10-08T14:41:15.395Z,19.89
2022-10-08T14:43:41.827Z,19.88
2022-10-08T14:46:08.506Z,19.77
2022-10-08T14:48:36.274Z,19.79
2022-10-08T14:51:02.589Z,19.81
2022-10-08T14:53:28.941Z,19.86
2022-10-08T14:56:11.700Z,19.89
2022-10-08T14:58:38.653Z,19.88
2022-10-08T15:01:05.257Z,19.88
2022-10-08T15:03:31.578Z,19.84
2022-10-08T15:05:59.606Z,19.79
2022-10-08T15:08:26.366Z,19.89
2022-10-08T15:10:52.790Z,19.90
2022-10-08T15:13:19.126Z,19.90
2022-10-08T15:15:45.697Z,19.90
2022-10-08T15:18:12.111Z,19.94
2022-10-08T15:20:39.085Z,19.94
2022-10-08T15:23:07.154Z,19.86
2022-10-08T15:25:33.469Z,19.78
2022-10-08T15:27:59.877Z,19.83
2022-10-08T15:30:26.294Z,19.87
2022-10-08T15:32:52.644Z,19.90
2022-10-08T15:35:18.982Z,19.92
2022-10-08T15:37:45.709Z,19.93
2022-10-08T15:40:13.344Z,19.97
2022-10-08T15:42:40.022Z,19.92
2022-10-08T15:45:06.841Z,19.86
2022-10-08T15:47:33.183Z,19.89
2022-10-08T15:49:59.699Z,19.92
2022-10-08T15:52:26.147Z,19.99
2022-10-08T15:54:52.481Z,20.00
2022-10-08T15:57:20.119Z,20.00
2022-10-08T15:59:46.556Z,19.94
2022-10-08T16:02:17.106Z,19.88
2022-10-08T16:04:44.865Z,19.92
2022-10-08T16:07:11.188Z,19.98
2022-10-08T16:09:37.512Z,19.99
2022-10-08T16:12:03.836Z,20.00
2022-10-08T16:14:31.509Z,19.98
2022-10-08T16:16:57.906Z,19.98
2022-10-08T16:19:25.002Z,19.98
2022-10-08T16:21:52.303Z,19.92
2022-10-08T16:24:19.362Z,19.94
2022-10-08T16:26:45.901Z,19.96
2022-10-08T16:29:13.503Z,20.03
2022-10-08T16:31:42.157Z,20.02
2022-10-08T16:34:11.503Z,20.07
2022-10-08T16:36:37.827Z,20.06
2022-10-08T16:39:04.990Z,19.96
2022-10-08T16:41:32.333Z,19.93
2022-10-08T16:43:59.584Z,19.97
2022-10-08T16:46:27.200Z,20.05
2022-10-08T16:48:55.921Z,20.00
2022-10-08T16:51:23.341Z,20.06
2022-10-08T16:53:50.410Z,20.10
2022-10-08T16:56:17.330Z,20.09
2022-10-08T16:58:44.092Z,19.94
2022-10-08T17:01:10.553Z,19.95
2022-10-08T17:03:37.184Z,20.00
2022-10-08T17:06:05.074Z,20.02
2022-10-08T17:08:31.438Z,20.06
2022-10-08T17:10:57.769Z,20.05
2022-10-08T17:13:24.116Z,20.02
2022-10-08T17:15:58.161Z,19.94
2022-10-08T17:18:25.135Z,19.90
2022-10-08T17:20:53.616Z,19.94
2022-10-08T17:23:21.270Z,19.95
2022-10-08T17:25:53.114Z,19.96
2022-10-08T17:28:19.642Z,19.97
2022-10-08T17:30:46.060Z,19.98
2022-10-08T17:33:12.501Z,19.89
2022-10-08T17:35:38.919Z,19.87
2022-10-08T17:38:05.243Z,19.91
2022-10-08T17:40:32.984Z,19.92
2022-10-08T17:42:59.314Z,19.93
2022-10-08T17:45:25.832Z,19.92
2022-10-08T17:47:52.217Z,19.93
2022-10-08T17:50:18.665Z,19.93
2022-10-08T17:52:45.470Z,19.91
2022-10-08T17:55:15.379Z,19.82
2022-10-08T17:57:44.562Z,19.83
2022-10-08T18:00:12.403Z,19.84
2022-10-08T18:02:38.802Z,19.87
2022-10-08T18:05:05.397Z,19.87
2022-10-08T18:07:31.832Z,19.89
2022-10-08T18:09:58.170Z,19.88
2022-10-08T18:12:24.503Z,19.87
2022-10-08T18:14:52.162Z,19.76
2022-10-08T18:17:18.505Z,19.76
2022-10-08T18:19:44.819Z,19.79
2022-10-08T18:22:11.166Z,19.80
2022-10-08T18:24:37.498Z,19.80
2022-10-08T18:27:03.884Z,19.82
2022-10-08T18:29:30.244Z,19.80
2022-10-08T18:31:57.915Z,19.80
2022-10-08T18:34:24.235Z,19.76
2022-10-08T18:36:50.607Z,19.70
2022-10-08T18:39:18.406Z,19.72
2022-10-08T18:41:45.559Z,19.73
2022-10-08T18:44:13.752Z,19.75
2022-10-08T18:46:40.224Z,19.75
2022-10-08T18:49:07.886Z,19.75
2022-10-08T18:51:34.516Z,19.74
2022-10-08T18:54:01.024Z,19.76
2022-10-08T18:56:28.285Z,19.73
2022-10-08T18:58:55.087Z,19.66
2022-10-08T19:01:22.336Z,19.66
2022-10-08T19:03:50.209Z,19.68
2022-10-08T19:06:18.902Z,19.68
2022-10-08T19:08:45.194Z,19.69
2022-10-08T19:11:12.244Z,19.69
2022-10-08T19:13:38.774Z,19.71
2022-10-08T19:16:05.569Z,19.71
2022-10-08T19:18:32.044Z,19.70
2022-10-08T19:21:05.981Z,19.63
2022-10-08T19:23:33.619Z,19.62
2022-10-08T19:25:59.966Z,19.63
2022-10-08T19:28:26.330Z,19.63
2022-10-08T19:30:52.748Z,19.63
2022-10-08T19:33:19.061Z,19.64
2022-10-08T19:35:45.514Z,19.64
2022-10-08T19:38:11.820Z,19.65
2022-10-08T19:40:39.435Z,19.64
2022-10-08T19:43:05.871Z,19.58
2022-10-08T19:45:33.256Z,19.56
2022-10-08T19:47:59.587Z,19.57
2022-10-08T19:50:25.914Z,19.58
2022-10-08T19:52:52.539Z,19.58
2022-10-08T19:55:19.238Z,19.58
2022-10-08T19:57:46.874Z,19.58
2022-10-08T20:00:13.621Z,19.58
2022-10-08T20:02:39.995Z,19.60
2022-10-08T20:05:06.961Z,19.53
2022-10-08T20:07:33.406Z,19.49
2022-10-08T20:09:59.789Z,19.50
2022-10-08T20:12:26.172Z,19.53
2022-10-08T20:14:53.881Z,19.53
2022-10-08T20:17:20.213Z,19.54
2022-10-08T20:19:46.544Z,19.53
2022-10-08T20:22:12.924Z,19.54
2022-10-08T20:24:39.267Z,19.53
2022-10-08T20:27:05.578Z,19.48
2022-10-08T20:29:31.942Z,19.44
2022-10-08T20:31:59.548Z,19.46
2022-10-08T20:34:26.376Z,19.46
2022-10-08T20:36:53.198Z,19.46
2022-10-08T20:39:20.289Z,19.47
2022-10-08T20:41:47.223Z,19.47
2022-10-08T20:44:13.971Z,19.48
2022-10-08T20:46:40.437Z,19.47
2022-10-08T20:49:10.004Z,19.43
2022-10-08T20:51:38.181Z,19.41
2022-10-08T20:54:05.520Z,19.42
2022-10-08T20:56:37.104Z,19.41
2022-10-08T20:59:05.920Z,19.43
2022-10-08T21:01:33.041Z,19.44
2022-10-08T21:03:59.826Z,19.44
2022-10-08T21:06:28.675Z,19.43
2022-10-08T21:08:55.729Z,19.41
2022-10-08T21:11:22.973Z,19.40
2022-10-08T21:13:49.343Z,19.35
2022-10-08T21:16:17.003Z,19.35
2022-10-08T21:18:43.519Z,19.36
2022-10-08T21:21:11.437Z,19.37
2022-10-08T21:23:39.723Z,19.38
2022-10-08T21:26:07.342Z,19.38
2022-10-08T21:28:33.896Z,19.38
2022-10-08T21:31:03.993Z,19.40
2022-10-08T21:33:30.914Z,19.38
2022-10-08T21:35:57.415Z,19.31
2022-10-08T21:38:24.369Z,19.31
2022-10-08T21:40:55.770Z,19.32
2022-10-08T21:43:22.250Z,19.33
2022-10-08T21:45:56.183Z,19.34
2022-10-08T21:48:22.899Z,19.35
2022-10-08T21:50:57.248Z,19.36
2022-10-08T21:53:23.649Z,19.37
2022-10-08T21:55:54.717Z,19.35
2022-10-08T21:58:21.406Z,19.28
2022-10-08T22:00:47.782Z,19.28
2022-10-08T22:03:15.562Z,19.30
2022-10-08T22:05:48.845Z,19.30
2022-10-08T22:08:15.187Z,19.30
2022-10-08T22:10:41.495Z,19.33
2022-10-08T22:13:09.154Z,19.34
2022-10-08T22:15:35.597Z,19.33
2022-10-08T22:18:01.890Z,19.32
2022-10-08T22:20:28.236Z,19.27
2022-10-08T22:22:54.697Z,19.25
2022-10-08T22:25:21.010Z,19.27
2022-10-08T22:27:47.336Z,19.27
2022-10-08T22:30:15.117Z,19.28
2022-10-08T22:32:41.451Z,19.30
2022-10-08T22:35:08.359Z,19.28
2022-10-08T22:37:34.682Z,19.28
2022-10-08T22:40:01.043Z,19.28
2022-10-08T22:42:27.397Z,19.22
2022-10-08T22:44:53.718Z,19.21
2022-10-08T22:47:21.320Z,19.21
2022-10-08T22:49:47.742Z,19.22
2022-10-08T22:52:14.099Z,19.23
2022-10-08T22:54:40.515Z,19.23
2022-10-08T22:57:06.855Z,19.23
2022-10-08T22:59:33.195Z,19.23
2022-10-08T23:01:59.680Z,19.23
2022-10-08T23:04:27.315Z,19.18
2022-10-08T23:06:53.626Z,19.17
2022-10-08T23:09:19.948Z,19.16
2022-10-08T23:11:46.415Z,19.17
2022-10-08T23:14:12.921Z,19.18
2022-10-08T23:16:39.298Z,19.18
2022-10-08T23:19:07.268Z,19.20
2022-10-08T23:21:35.051Z,19.19
2022-10-08T23:24:01.437Z,19.20
2022-10-08T23:26:29.450Z,19.15
2022-10-08T23:28:57.539Z,19.12
2022-10-08T23:31:25.867Z,19.13
2022-10-08T23:33:53.464Z,19.13
2022-10-08T23:36:20.875Z,19.14
2022-10-08T23:38:48.928Z,19.12
2022-10-08T23:41:15.510Z,19.13
2022-10-08T23:43:42.827Z,19.14
2022-10-08T23:46:10.301Z,19.11
2022-10-08T23:48:36.894Z,19.07
2022-10-08T23:51:03.813Z,19.07
2022-10-08T23:53:30.364Z,19.08
2022-10-08T23:55:58.128Z,19.09
2022-10-08T23:58:24.626Z,19.08
